Flight Track Log - Related Links

Times and Time Zones

All times are in EDT time to prevent confusion due to time zone crossing. See the CFS800 flight status page for this flight to view local times or setup timezone preferences in your user account.

Time Position Orientation Groundspeed Altitude Reporting Facility
EDT Latitude Longitude Course Direction KTS MPH feet Rate Location/Type
Thu 10:35:10 AM 47.4825 -117.6383 207° Southwest 129 148 6,400  Level Seattle Center
Thu 10:36:00 AM 47.3822 -117.6874 202° Southwest  Level FlightAware Approximate
Thu 10:36:11 AM 47.4444 -117.6639 204° Southwest 149 171 6,400  Level Seattle Center
Thu 10:37:00 AM 47.3425 -117.7112 202° Southwest  Level FlightAware Approximate
Thu 10:37:12 AM 47.4017 -117.6953 206° Southwest 169 194 6,400  Level Seattle Center
Thu 10:38:00 AM 47.3039 -117.7388 207° Southwest  Level FlightAware Approximate
Thu 10:38:13 AM 47.3589 -117.7256 206° Southwest 171 197 6,400  Level Seattle Center
Thu 10:39:00 AM 47.2658 -117.7674 207° Southwest  Level FlightAware Approximate
Thu 10:39:14 AM 47.3075 -117.7606 205° Southwest 170 196 6,400  Level Seattle Center
Thu 10:40:00 AM 47.2276 -117.7961 207° Southwest  Level FlightAware Approximate
Thu 10:40:15 AM 47.2647 -117.7900 205° Southwest 170 196 6,400  Level Seattle Center
Thu 10:41:15 AM 47.2231 -117.8194 206° Southwest 168 193 6,400  Level Seattle Center
Thu 10:42:16 AM 47.1811 -117.8492 206° Southwest 168 193 6,400  Level Seattle Center
Thu 10:43:17 AM 47.1381 -117.8775 204° Southwest 170 196 6,400  Level Seattle Center
Thu 10:44:18 AM 47.0953 -117.9086 206° Southwest 171 197 6,400  Level Seattle Center
Thu 10:45:19 AM 47.0528 -117.9350 203° Southwest 167 192 6,400  Level Seattle Center
Thu 10:46:19 AM 47.0106 -117.9653 206° Southwest 168 193 6,400  Level Seattle Center
Thu 10:47:20 AM 46.9683 -117.9942 205° Southwest 168 193 6,400  Level Seattle Center
Thu 10:48:21 AM 46.9258 -118.0228 205° Southwest 168 193 6,400  Level Seattle Center
Thu 10:49:22 AM 46.8833 -118.0525 206° Southwest 169 194 6,400  Level Seattle Center
Thu 10:50:23 AM 46.8394 -118.0808 204° Southwest 171 197 6,400  Level Seattle Center
Thu 10:51:24 AM 46.7978 -118.1089 205° Southwest 169 194 6,400  Level Seattle Center
Thu 10:52:25 AM 46.7483 -118.1433 206° Southwest 162 186 6,400  Level Seattle Center
Thu 10:53:25 AM 46.7072 -118.1722 206° Southwest 165 190 6,400  Level Seattle Center
Thu 10:54:26 AM 46.6653 -118.1997 204° Southwest 166 191 6,400  Level Seattle Center
Thu 10:55:27 AM 46.6236 -118.2286 205° Southwest 165 190 6,400  Level Seattle Center
Thu 10:56:28 AM 46.5825 -118.2569 205° Southwest 164 189 6,400  Level Seattle Center
Thu 10:57:29 AM 46.5408 -118.2831 203° Southwest 164 189 6,400  Level Seattle Center
Thu 10:58:30 AM 46.5011 -118.3117 206° Southwest 162 186 6,400 49 Level Seattle Center
Thu 10:59:31 AM 46.4711 -118.3458 218° Southwest 155 178 6,500 49 Climbing Seattle Center
Thu 11:00:32 AM 46.4303 -118.3553 189° South 144 166 6,500  Level Seattle Center
Thu 11:01:33 AM 46.3883 -118.3842 205° Southwest 156 180 6,500  Level Seattle Center
Thu 11:02:33 AM 46.3475 -118.4136 206° Southwest 163 188 6,500  Level Seattle Center
Thu 11:03:34 AM 46.3056 -118.4425 205° Southwest 165 190 6,500  Level Seattle Center
Thu 11:04:35 AM 46.2642 -118.4681 203° Southwest 164 189 6,500  Level Seattle Center
Thu 11:05:36 AM 46.2217 -118.4947 203° Southwest 165 190 6,500  Level Seattle Center
Thu 11:06:37 AM 46.1717 -118.5278 205° Southwest 165 190 6,500  Level Seattle Center
Thu 11:07:38 AM 46.1300 -118.5553 205° Southwest 165 190 6,500  Level Seattle Center
Thu 11:08:39 AM 46.0889 -118.5831 205° Southwest 165 190 6,500  Level Seattle Center
Thu 11:09:39 AM 46.0467 -118.6078 202° Southwest 164 189 6,500  Level Seattle Center
Thu 11:10:40 AM 46.0058 -118.6356 205° Southwest 164 189 6,500  Level Seattle Center
Thu 11:11:41 AM 45.9644 -118.6647 206° Southwest 164 189 6,500 -344 Level Seattle Center
Thu 11:12:42 AM 45.9225 -118.6931 205° Southwest 165 190 5,800 -738 Descending Seattle Center
Thu 11:13:43 AM 45.8792 -118.7233 206° Southwest 169 194 5,000 -590 Descending Seattle Center
Thu 11:14:44 AM 45.8308 -118.7547 204° Southwest 169 194 4,600 -541 Descending Seattle Center
Thu 11:15:45 AM 45.7972 -118.7764 204° Southwest 168 193 3,900 -689 Descending Seattle Center

Login

Don't have an account? Register now (free) for customized features, flight alerts, and more!